EFHK/HEL METAR and TAF weather

Enter ICAO airport designator
Station Type Date Time Source
EFHK METAR 2018/09/21 23:20 UTC NOAA

EFHK 212320Z 16015KT CAVOK 20/13 Q0996 NOSIG


Station Type Date Time Source
EFHK Decoded METAR 2018/09/21 23:20 UTC NOAA

Helsinki-Vantaa, Finland (EFHK) 60-19N 024-58E 56M
Sep 21, 2018 - 07:20 PM EDT / 2018.09.21 2320 UTC
Wind: from the SSE (160 degrees) at 17 MPH (15 KT):0
Visibility: greater than 7 mile(s):0
Temperature: 68 F (20 C)
Dew Point: 55 F (13 C)
Relative Humidity: 64%
Pressure (altimeter): 29.41 in. Hg (0996 hPa)
ob: EFHK 212320Z 16015KT CAVOK 20/13 Q0996 NOSIG
cycle: 23

Station Type Date Time Source
EFHK TAF 2018/09/21 21:44 UTC NOAA

TAF EFHK 212036Z 2121/2221 16018KT CAVOK PROB30
TEMPO 2121/2204 16018G28KT PROB40
TEMPO 2204/2208 FEW030CB BKN080
BECMG 2208/2210 21020G32KT
TEMPO 2210/2216 SCT040CB
BECMG 2214/2216 22013KT


Example: see airport list